Weather observations for the past three days for
Harlan
Imperial (Metric)
Date Time (edt) Wind (mph) Vis. (mi.) Weather Sky Cond. Temperature (ºF) Relative Humidity Wind Chill (°F) Heat Index (°F) Pressure Precipitation (in)
Air Dwpt 6 hour altimeter (in) sea level (mb) 1 hr 3 hr 6 hr
Max. Min.
09 07:55 Calm 10.00 Fair CLR 46.4 45.1 46.8 43.2 95% 29.87 0.0
09 07:35 Calm 10.00 Fair CLR 46.2 45.3 97% 29.87 0.0
09 07:15 Calm 10.00 Fair CLR 45.1 44.1 96% 29.87 0.0
09 06:55 E 3 10.00 Fair CLR 44.6 43.7 97% 29.87 0.0
09 06:35 Calm 10.00 Fair CLR 45.3 44.2 96% 29.89 0.0
09 06:15 Calm 10.00 Fair CLR 44.6 43.7 97% 29.88 0.0
09 05:55 Calm 10.00 Fair CLR 44.2 43.7 98% 29.87 0.0
09 05:35 Calm 10.00 Fair CLR 44.6 43.7 97% 29.88 0.0
09 05:15 Calm 10.00 Fair CLR 44.1 43.5 98% 29.88 0.0
09 04:55 Calm 10.00 Fair CLR 43.9 43.5 99% 29.87 0.0
09 04:35 Calm 10.00 Fair CLR 43.3 43 99% 29.87 0.0
09 03:55 Calm 10.00 Fair CLR 43.3 43 99% 29.88 0.0
09 03:35 Calm 10.00 Fair CLR 43.5 43 98% 29.88 0.0
09 03:15 Calm 10.00 Fair CLR 43.7 43 97% 29.88 0.0
09 02:55 Calm 10.00 Fair CLR 43.9 43 97% 29.88 0.0
09 02:35 Calm 10.00 Fair CLR 43.9 43 97% 29.88 0.0
09 02:15 Calm 10.00 Fair CLR 44.4 43 95% 29.89 0.0
09 01:55 Calm 10.00 Fair CLR 44.4 43.2 62.6 44.2 95% 29.89 0.0
09 01:35 Calm 10.00 Fair CLR 44.6 43.7 97% 29.91 0.0
09 01:15 SE 3 10.00 Fair CLR 45 43.9 96% 29.91 0.0
09 00:55 Calm 10.00 Fair CLR 45 43.9 96% 29.92 0.0
09 00:35 Calm 10.00 Fair CLR 45.5 43.7 93% 29.92 0.0
09 00:15 Calm 10.00 Fair CLR 46 43.7 92% 29.92 0.0
08 23:55 Calm 10.00 Fair CLR 46.4 43.2 89% 29.92 0.0
08 23:35 Calm 10.00 Fair CLR 47.3 43.2 86% 29.92 0.0
08 23:15 Calm 10.00 Fair CLR 48.2 43.5 84% 29.93 0.0
08 22:55 Calm 10.00 Fair CLR 48.7 43.5 82% 29.93 0.0
08 22:35 Calm 10.00 Fair CLR 50 43.7 79% 29.93 0.0
08 22:15 Calm 10.00 Fair CLR 50.4 42.8 75% 29.92 0.0
08 21:55 Calm 10.00 Fair CLR 51.4 42.8 72% 29.93 0.0
08 21:35 Calm 10.00 Fair CLR 52.7 41.5 66% 29.93 0.0
08 21:15 Calm 10.00 Fair CLR 54.3 40.8 60% 29.93 0.0
08 20:35 Calm 10.00 Fair CLR 57.6 39.2 51% 29.92 0.0
08 20:15 Calm 10.00 Fair CLR 61.7 38.3 42% 29.91 0.0
08 19:55 Calm 10.00 Fair CLR 63.1 37.8 68.9 63.1 39% 29.91 0.0
08 19:35 Calm 10.00 Fair CLR 65.7 35.6 33% 29.91 0.0
08 19:15 W 5 10.00 Fair CLR 67.1 34.3 30% 29.92 0.0
08 18:55 W 6 10.00 Fair CLR 67.8 32.5 27% 29.93 0.0
08 18:15 S 3 10.00 Fair CLR 68.4 33.1 27% 29.93 0.0
08 17:55 Calm 10.00 Fair CLR 68.2 32.5 27% 29.92 0.0
08 17:35 S 5 10.00 Fair CLR 68 31.5 26% 29.92 0.0
08 17:15 S 3 10.00 Fair CLR 68.7 32.2 26% 29.91 0.0
08 16:55 SE 8 10.00 Fair CLR 67.8 32.5 27% 29.92 0.0
08 16:35 S 6 10.00 Fair CLR 68.2 33.1 27% 29.93 0.0
08 16:15 Calm 10.00 Fair CLR 67.3 33.4 29% 29.95 0.0
08 15:55 SE 3 10.00 Fair CLR 67.6 32.2 27% 29.96 0.0
08 15:35 E 3 10.00 Fair CLR 66.9 33.1 29% 29.96 0.0
08 15:15 Calm 10.00 Fair CLR 66.9 32.9 28% 29.98 0.0
08 14:55 SE 6 10.00 Fair CLR 66.9 36.3 32% 29.99 0.0
08 14:35 S 5 10.00 Fair CLR 66.4 36.1 33% 30 0.0
08 14:15 Calm 10.00 Fair CLR 65.8 36.7 34% 30 0.0
08 13:55 S 5 10.00 Fair CLR 65.8 35.4 66.6 39.2 32% 30.01 0.0
08 13:35 Calm 10.00 Fair CLR 64.6 37.2 36% 30.02 0.0
08 13:15 NE 3 10.00 Fair CLR 63.7 37.8 38% 30.03 0.0
08 12:55 E 3 10.00 Fair CLR 63.5 34.7 34% 30.04 0.0
08 12:35 Calm 10.00 Fair CLR 62.4 37.4 40% 30.05 0.0
08 12:15 Calm 10.00 Fair CLR 61.3 36.7 40% 30.06 0.0
08 11:55 Calm 10.00 Fair CLR 60.4 38.8 45% 30.08 0.0
08 11:35 Calm 10.00 Fair CLR 58.3 35.8 43% 30.08 0.0
08 11:15 Calm 10.00 Fair CLR 57.4 41.5 56% 30.08 0.0
08 10:55 Calm 10.00 Fair CLR 56.1 43 62% 30.08 0.0
08 10:35 Calm 10.00 Fair CLR 53.8 44.1 70% 30.09 0.0
08 10:15 Calm 10.00 Fair CLR 48.9 41.5 76% 30.09 0.0
08 09:55 Calm 10.00 Partly Cloudy SCT005 46.4 41.2 82% 30.09 0.0
08 09:15 Calm 10.00 Overcast OVC003 42.6 42.3 99% 30.09 0.0
08 08:35 Calm 1.50 Overcast OVC001 39.6 39.6 100% 30.09 0.0
08 08:15 E 3 1.75 Overcast OVC001 39.9 39.9 100% 30.09 0.0
08 07:55 Calm 1.50 Overcast OVC001 39.2 39.2 42.4 38.1 100% 30.08 0.0
08 07:35 NE 3 0.50 Overcast OVC001 38.7 38.7 100% 30.08 0.0
08 07:15 Calm 0.25 Overcast OVC001 38.7 38.7 100% 30.06 0.0
08 06:55 Calm 0.15 Overcast OVC001 38.3 38.3 100% 30.06 0.0
08 06:35 Calm 0.50 Overcast OVC001 38.7 38.7 100% 30.05 0.0
08 06:15 NE 3 0.50 Overcast OVC001 38.7 38.7 100% 30.04 0.0
08 05:55 Calm 0.50 Overcast OVC001 39 39 100% 30.05 0.0
08 05:35 Calm 0.50 Overcast OVC001 38.8 38.8 100% 30.04 0.0
08 05:15 Calm 0.75 Overcast OVC001 39.6 39.6 100% 30.05 0.0
08 04:55 Calm 0.50 Overcast OVC001 40.1 40.1 100% 30.04 0.0
08 04:35 Calm 0.75 Overcast OVC001 40.3 40.3 100% 30.04 0.0
08 04:15 Calm 0.50 Overcast OVC001 41.2 41.2 100% 30.04 0.0
08 03:35 Calm 0.25 Overcast OVC001 40.3 40.3 100% 30.04 0.0
08 03:15 Calm 0.50 Overcast OVC001 40.8 40.8 100% 30.04 0.0
08 02:55 Calm 0.25 Overcast OVC001 41.5 41.5 100% 30.04 0.0
08 02:35 Calm 0.50 Overcast OVC001 42.1 42.1 100% 30.03 0.0
08 02:15 Calm 0.25 Overcast OVC001 42.3 42.3 100% 30.03 0.0
08 01:55 Calm 0.50 Overcast OVC001 42.8 42.8 58.3 42.4 100% 30.04 0.0
08 01:35 Calm 0.50 Overcast OVC001 43 43 100% 30.05 0.0
08 01:15 Calm 0.50 Overcast OVC001 43 43 100% 30.04 0.0
08 00:55 Calm 5.00 Mostly Cloudy BKN001 42.4 42.4 100% 30.04 0.0
08 00:35 Calm 10.00 Partly Cloudy SCT001 42.8 42.4 99% 30.03 0.0
08 00:15 Calm 10.00 Fair CLR 43.5 43.2 99% 30.03 0.0
07 23:55 Calm 10.00 Fair CLR 43.7 43.2 98% 30.02 0.0
07 23:35 Calm 10.00 Fair CLR 43.9 43.2 97% 30.02 0.0
07 22:55 Calm 10.00 Fair CLR 45.3 43 92% 30.02 0.0
07 22:35 Calm 10.00 Fair CLR 46.9 43.2 87% 30.01 0.0
07 22:15 Calm 10.00 Fair CLR 47.3 42.8 84% 30.01 0.0
07 21:55 Calm 10.00 Fair CLR 48.6 42.3 79% 30 0.0
07 21:35 Calm 10.00 Fair CLR 49.3 42.1 76% 29.98 0.0
07 21:15 Calm 10.00 Fair CLR 51.1 40.5 67% 29.97 0.0
07 20:55 Calm 10.00 Fair CLR 52.5 40.6 64% 29.96 0.0
07 20:35 NW 3 10.00 Fair CLR 53.8 41.2 63% 29.96 0.0
07 20:15 NW 5 10.00 Fair CLR 56.3 39.9 54% 29.95 0.0
07 19:55 W 5 10.00 Partly Cloudy SCT060 59 39.7 63.1 56.8 49% 29.95 0.0
07 19:35 NW 5 10.00 Mostly Cloudy BKN060 60.4 38.1 44% 29.94 0.0
07 19:15 W 7 10.00 Partly Cloudy SCT060 61.2 38.3 43% 29.95 0.0
07 18:55 W 8 10.00 Mostly Cloudy BKN060 61.9 37.2 40% 29.95 0.0
07 18:35 NW 6 10.00 Mostly Cloudy BKN050 62.4 38.1 41% 29.94 0.0
07 18:15 W 7 10.00 Mostly Cloudy BKN050 62.8 39 42% 29.94 0.0
07 17:55 W 10 G 16 10.00 Partly Cloudy SCT060 62.8 39.9 43% 29.94 0.0
07 17:35 W 10 10.00 Partly Cloudy SCT060 61.3 39.4 44% 29.93 0.0
07 17:15 W 7 10.00 Mostly Cloudy BKN050 61.9 41.5 47% 29.92 0.0
07 16:55 NW 6 10.00 Partly Cloudy SCT050 62.1 41.2 46% 29.92 0.0
07 16:35 NW 8 10.00 Mostly Cloudy BKN044 BKN050 60.8 42.4 51% 29.93 0.0
07 16:15 NW 3 10.00 Mostly Cloudy SCT042 BKN049 61.3 43 51% 29.93 0.0
07 15:35 W 5 10.00 Mostly Cloudy SCT041 BKN048 60.3 41.7 51% 29.93 0.0
07 15:15 N 6 10.00 Overcast BKN044 OVC050 58.8 42.6 55% 29.94 0.0
07 14:55 W 5 10.00 Overcast BKN041 OVC050 59.2 42.4 54% 29.95 0.0
07 14:35 E 5 10.00 Overcast BKN037 OVC045 58.8 43.9 58% 29.95 0.0
07 14:15 Calm 10.00 Overcast BKN037 OVC044 56.8 41.9 58% 29.94 0.0
07 13:55 NW 6 10.00 Overcast BKN037 OVC043 57.4 41.9 58.5 49.8 56% 29.96 0.0
07 13:15 NE 7 10.00 Overcast OVC036 57.2 42.6 58% 29.96 0.0
07 12:55 NW 6 10.00 Overcast OVC034 56.3 42.4 60% 29.97 0.0
07 12:35 W 3 10.00 Overcast BKN034 OVC040 56.8 42.8 60% 29.96 0.0
07 11:55 N 6 10.00 Overcast BKN031 OVC046 56.7 42.8 60% 29.96 0.0
07 11:35 NE 3 10.00 Overcast SCT029 BKN041 OVC047 55.8 42.4 61% 29.96 0.0
07 11:15 E 5 10.00 Overcast SCT029 OVC038 54.9 43.3 65% 29.95 0.0
07 10:55 N 8 10.00 Overcast BKN027 OVC038 54 44.4 70% 29.96 0.0
07 10:35 Calm 10.00 Overcast SCT027 OVC036 53.4 44.2 71% 29.95 0.0
07 10:15 N 5 10.00 Overcast SCT023 SCT029 OVC038 53.1 44.4 73% 29.95 0.0
07 09:55 N 6 10.00 Overcast SCT021 SCT029 OVC038 52.7 45.1 76% 29.95 0.0
07 09:35 Calm 10.00 Overcast SCT018 BKN031 OVC036 52 48.4 88% 29.95 0.0
07 09:15 Calm 10.00 Overcast SCT020 SCT029 OVC036 51.3 48.4 90% 29.95 0.0
07 08:55 Calm 10.00 Overcast SCT017 BKN027 OVC036 50.5 47.8 91% 29.95 0.0
07 08:35 Calm 10.00 Overcast BKN017 OVC025 50.4 48 92% 29.95 0.0
07 08:15 Calm 10.00 Overcast BKN019 BKN027 OVC031 50 47.8 92% 29.94 0.0
07 07:55 Calm 10.00 Overcast SCT019 BKN025 OVC031 50.4 47.8 52.9 49.8 91% 29.94 0.0 0.02
07 07:35 Calm 10.00 Overcast OVC022 50 48.2 94% 29.94 0.0
07 06:55 NE 3 10.00 Overcast BKN010 OVC018 50.4 48 92% 29.94 0.0
07 06:35 N 7 7.00 Overcast OVC010 50.9 49.5 95% 29.93 0.0
07 06:15 Calm 10.00 Overcast OVC010 51.8 50.2 94% 29.92 0.0
07 05:35 Calm 7.00 Overcast SCT003 OVC013 52.2 52.2 100% 29.93 0.0
07 05:15 Calm 7.00 Overcast BKN003 OVC015 52 52 100% 29.92 0.0
07 04:55 Calm 4.00 Overcast SCT003 OVC015 52.3 52.3 100% 29.92 0.0 0.01 0.02
07 04:35 Calm 10.00 Overcast SCT003 OVC015 52.2 52.2 100% 29.92 0.0
07 04:15 Calm 5.00 Overcast BKN015 OVC023 52.2 52.2 100% 29.92 0.0
07 03:55 Calm 4.00 Overcast OVC015 52.2 52.2 100% 29.92 0.0
07 03:35 Calm 10.00 Overcast OVC015 52.2 52.2 100% 29.92 0.0
07 03:15 Calm 10.00 Overcast OVC015 52.3 52.3 100% 29.92 0.0
07 02:55 Calm 5.00 Overcast BKN015 OVC027 52.3 52.3 100% 29.93 0.0 0.01
07 02:35 Calm 10.00 Overcast BKN015 OVC027 52.3 52.3 100% 29.94 0.0 0.01
07 02:15 Calm 5.00 Overcast BKN015 OVC027 52.7 52.7 100% 29.94 0.0 0.01
07 01:55 Calm 10.00 Overcast SCT015 OVC027 52.7 52.7 57.9 52.5 100% 29.96 0.0 0.07
07 01:35 Calm 10.00 Overcast SCT015 OVC025 52.7 52.3 99% 29.96 0.0
07 01:15 Calm 10.00 Overcast SCT010 SCT013 OVC025 53.1 52.7 99% 29.94 0.0
07 00:35 Calm 10.00 Overcast SCT010 OVC017 53.1 51.6 95% 29.94 0.0
07 00:15 NW 5 10.00 Overcast BKN010 OVC017 53.6 52.3 96% 29.94 0.0
06 23:55 Calm 10.00 Overcast SCT010 OVC017 53.8 52 94% 29.95 0.0 0.01
06 23:35 Calm 7.00 Overcast SCT008 OVC017 53.8 52 94% 29.95 0.0 0.01
06 23:15 W 6 7.00 Overcast OVC010 54.5 53.6 97% 29.97 0.0
06 22:55 W 10 3.00 Overcast SCT008 OVC012 56.3 56.3 100% 29.95 0.0 0.02 0.06
06 22:35 Calm 7.00 Overcast BKN010 OVC014 56.3 56.3 100% 29.93 0.0 0.01
06 21:55 Calm 4.00 Overcast OVC018 56.3 56.3 100% 29.92 0.0 0.01
06 21:35 Calm 10.00 Overcast SCT012 OVC020 56.7 56.5 99% 29.94 0.0 0.01
06 21:15 Calm 7.00 Overcast OVC012 56.8 56.3 98% 29.96 0.0 0.01
06 20:55 W 5 4.00 Overcast OVC012 57.2 56.7 98% 29.96 0.0 0.03
06 20:35 W 3 7.00 Overcast BKN012 OVC020 57.6 57.4 99% 29.95 0.0 0.01
06 20:15 NW 5 7.00 Overcast OVC018 57.6 57.2 99% 29.93 0.0 0.01
06 19:55 W 5 10.00 Overcast SCT010 BKN016 OVC095 57.6 57.6 68.9 57.6 100% 29.91 0.0 0.01 0.02
06 19:35 Calm 7.00 Overcast BKN010 OVC014 58.1 57.9 99% 29.9 0.0 0.01
06 19:15 Calm 7.00 Overcast OVC010 58.1 57.4 97% 29.92 0.0 0.01
06 18:55 W 5 10.00 Overcast OVC010 58.3 57.4 97% 29.93 0.0 0.01
06 18:35 W 3 4.00 Overcast BKN008 OVC014 58.5 57.2 96% 29.91 0.0 0.01
06 18:15 W 6 10.00 Overcast OVC008 58.6 57.2 95% 29.92 0.0
06 17:55 Calm 7.00 Overcast BKN008 OVC011 59.7 58.3 95% 29.91 0.0
06 17:35 N 7 10.00 Overcast BKN008 OVC013 60.6 59.2 95% 29.89 0.0
06 17:15 N 3 10.00 Overcast OVC013 64.4 62.1 92% 29.87 0.0
06 16:55 W 5 10.00 Overcast BKN013 OVC018 65.3 63.1 93% 29.88 0.0
06 16:35 Calm 5.00 Overcast SCT017 OVC024 66.6 63 88% 29.88 0.0
06 16:15 Calm 10.00 Overcast SCT012 BKN026 OVC036 67.1 63.5 88% 29.89 0.0
06 15:55 W 3 10.00 Overcast BKN026 BKN030 OVC036 66.4 63 89% 29.88 0.0
06 15:35 W 3 10.00 Overcast OVC026 66.2 63.1 90% 29.89 0.0
06 15:15 W 5 10.00 Overcast OVC028 66.6 63 88% 29.89 0.0
06 14:55 W 7 10.00 Overcast SCT021 BKN026 OVC034 67.5 62.4 84% 29.89 0.0
06 14:35 W 7 10.00 Overcast SCT018 BKN024 OVC044 68.5 62.4 81% 29.89 0.0
06 14:15 SW 3 10.00 Overcast SCT016 BKN023 OVC042 68 63.5 86% 29.89 0.0
06 13:55 SW 3 10.00 Overcast SCT010 BKN023 OVC029 66.6 63.5 66.9 60.1 90% 29.89 0.0 0.09
06 13:35 Calm 10.00 Overcast BKN021 OVC026 65.7 63 91% 29.89 0.0
06 13:15 Calm 10.00 Overcast OVC021 65.3 63.1 93% 29.89 0.0
06 12:55 Calm 10.00 Overcast SCT004 OVC023 65.3 63.1 93% 29.89 0.0
06 12:35 Calm 7.00 Overcast OVC021 63.9 63.9 100% 29.89 0.0
06 12:15 Calm 7.00 Overcast OVC021 63.3 62.6 98% 29.9 0.0
06 11:55 N 3 10.00 Overcast OVC021 63.1 63.1 100% 29.89 0.0 0.01
06 11:35 Calm 1.25 Overcast SCT016 OVC021 62.8 62.6 99% 29.88 0.0 0.01
06 11:15 Calm 10.00 Overcast OVC023 63 62.1 97% 29.9 0.0
06 10:55 Calm 5.00 Overcast OVC021 62.6 62.4 99% 29.89 0.0 0.06 0.08
06 10:35 Calm 5.00 Overcast OVC021 62.2 61.9 99% 29.88 0.0 0.06
06 10:15 Calm 1.25 Overcast OVC021 61.9 61.9 100% 29.88 0.0 0.04
06 09:55 Calm 2.50 Overcast OVC021 61.7 61.7 100% 29.87 0.0
06 09:35 Calm 3.00 Overcast OVC023 61 61 100% 29.86 0.0
06 09:15 Calm 3.00 Overcast SCT025 OVC031 61 61 100% 29.86 0.0
06 08:55 Calm 3.00 Overcast OVC030 61.2 61.2 100% 29.86 0.0 0.01
06 08:35 Calm 1.75 Overcast BKN026 OVC031 60.8 60.8 100% 29.85 0.0 0.01
06 08:15 Calm 1.75 Overcast SCT011 SCT017 OVC024 60.4 60.4 100% 29.86 0.0 0.01
Date Time (edt) Wind (mph) Vis. (mi.) Weather Sky Cond. Air Dwpt Max. Min. Relative Humidity Wind Chill (°F) Heat Index (°F) altimeter (in) sea level (mb) 1 hr 3 hr 6 hr
6 hour
Temperature (ºF) Pressure Precipitation (in)